首页
METAR-TAF:

METAR-TAF

机场 :

Plainview, 得克萨斯州, 美国

纬度: 34-10-05N, 经度: 101-43-02W, 海拔: 1028米

当前天气观测

该预报发布于18分钟前的10:15 UTC
风速9节,风向南转南东
温度 21°C
湿度 78%
气压 1015 hPa
能見度: 16.1公里
天空无云

METAR: KPVW 191015Z AUTO 15009KT 10SM CLR 21/17 A2997 RMK AO2 T02120170

时间: 05:33 (10:33 UTC)

预报

该预报发布于29分钟前的10:04 UTC
预报有效从19日的 10点(UTC)到 20日的 06点(UTC)
风速11节,风向南转南东
能見度: 10公里
天空无云
从 19日的 1400点(UTC)
风速11节,风向南转南东
能見度: 10公里
多云层高于2500英尺
从 19日的 1800点(UTC)
风速15节,风向东南,有时为25节阵风
能見度: 10公里
散云层高于8000英尺

TAF: KPVW 191004Z 1910/2006 15011KT P6SM SKC FM191400 15011KT P6SM BKN025 FM191800 13015G25KT P6SM SCT080

超过4000个机场的气象观测和天气预报(METAR&TAF报告)。

可查询的气象台以黄色和红色小点在地图上表示。

将鼠标移到小点上方,可查看气象台名称。

然后点击查看天气观测和预报。

如需切换地图:点击带黑十字的绿色按钮放大地图;点击带横线的绿色按钮缩小地图;或者点击绿色箭头查看邻近地区的地图。


METAR-TAF: